sensor_id;sensor_type;location;lat;lon;timestamp;P1;durP1;ratioP1;P2;durP2;ratioP2
19747;SDS011;10032;51.386;12.516;2023-04-01T00:00:31;1.77;;;0.97;;
19747;SDS011;10032;51.386;12.516;2023-04-01T00:02:57;2.27;;;1.10;;
19747;SDS011;10032;51.386;12.516;2023-04-01T00:05:23;2.67;;;1.00;;
19747;SDS011;10032;51.386;12.516;2023-04-01T00:07:49;3.07;;;1.30;;
19747;SDS011;10032;51.386;12.516;2023-04-01T00:10:15;3.07;;;0.77;;
19747;SDS011;10032;51.386;12.516;2023-04-01T00:12:40;1.37;;;0.80;;
19747;SDS011;10032;51.386;12.516;2023-04-01T00:15:08;1.23;;;1.13;;
19747;SDS011;10032;51.386;12.516;2023-04-01T00:17:35;1.93;;;1.03;;
19747;SDS011;10032;51.386;12.516;2023-04-01T00:20:01;1.03;;;0.93;;
19747;SDS011;10032;51.386;12.516;2023-04-01T00:22:28;1.67;;;1.00;;
19747;SDS011;10032;51.386;12.516;2023-04-01T00:24:53;1.17;;;1.07;;
19747;SDS011;10032;51.386;12.516;2023-04-01T00:27:19;2.10;;;1.00;;
19747;SDS011;10032;51.386;12.516;2023-04-01T00:29:45;1.03;;;0.63;;
19747;SDS011;10032;51.386;12.516;2023-04-01T00:32:11;1.50;;;0.77;;
19747;SDS011;10032;51.386;12.516;2023-04-01T00:34:37;1.90;;;1.00;;
19747;SDS011;10032;51.386;12.516;2023-04-01T00:37:03;1.60;;;0.90;;
19747;SDS011;10032;51.386;12.516;2023-04-01T00:39:29;1.30;;;1.00;;
19747;SDS011;10032;51.386;12.516;2023-04-01T00:41:56;2.60;;;0.80;;
19747;SDS011;10032;51.386;12.516;2023-04-01T00:44:25;1.03;;;0.90;;
19747;SDS011;10032;51.386;12.516;2023-04-01T00:46:53;4.63;;;1.77;;
19747;SDS011;10032;51.386;12.516;2023-04-01T00:49:20;0.67;;;0.67;;
19747;SDS011;10032;51.386;12.516;2023-04-01T00:51:50;2.40;;;1.10;;
19747;SDS011;10032;51.386;12.516;2023-04-01T00:54:18;2.30;;;1.13;;
19747;SDS011;10032;51.386;12.516;2023-04-01T00:56:49;1.10;;;1.10;;
19747;SDS011;10032;51.386;12.516;2023-04-01T00:59:27;1.50;;;0.80;;
19747;SDS011;10032;51.386;12.516;2023-04-01T01:01:57;2.07;;;1.20;;
19747;SDS011;10032;51.386;12.516;2023-04-01T01:04:29;1.93;;;0.60;;
19747;SDS011;10032;51.386;12.516;2023-04-01T01:09:44;1.10;;;1.00;;
19747;SDS011;10032;51.386;12.516;2023-04-01T01:26:09;2.10;;;1.40;;
19747;SDS011;10032;51.386;12.516;2023-04-01T01:29:33;1.20;;;1.10;;
19747;SDS011;10032;51.386;12.516;2023-04-01T01:31:57;1.20;;;1.17;;
19747;SDS011;10032;51.386;12.516;2023-04-01T01:34:50;1.87;;;1.30;;
19747;SDS011;10032;51.386;12.516;2023-04-01T01:37:23;1.17;;;1.07;;
19747;SDS011;10032;51.386;12.516;2023-04-01T01:39:55;1.70;;;1.40;;
19747;SDS011;10032;51.386;12.516;2023-04-01T01:42:26;1.40;;;0.97;;
19747;SDS011;10032;51.386;12.516;2023-04-01T01:44:54;2.47;;;1.17;;
19747;SDS011;10032;51.386;12.516;2023-04-01T01:47:22;1.17;;;1.07;;
19747;SDS011;10032;51.386;12.516;2023-04-01T01:49:48;3.10;;;1.23;;
19747;SDS011;10032;51.386;12.516;2023-04-01T01:52:16;1.67;;;1.27;;
19747;SDS011;10032;51.386;12.516;2023-04-01T01:54:52;2.50;;;1.27;;
19747;SDS011;10032;51.386;12.516;2023-04-01T01:57:21;1.23;;;0.87;;
19747;SDS011;10032;51.386;12.516;2023-04-01T01:59:51;1.73;;;0.93;;
19747;SDS011;10032;51.386;12.516;2023-04-01T02:02:21;2.43;;;1.20;;
19747;SDS011;10032;51.386;12.516;2023-04-01T02:04:48;1.13;;;1.00;;
19747;SDS011;10032;51.386;12.516;2023-04-01T02:07:20;1.23;;;1.03;;
19747;SDS011;10032;51.386;12.516;2023-04-01T02:09:49;3.13;;;1.57;;
19747;SDS011;10032;51.386;12.516;2023-04-01T02:12:15;2.03;;;1.40;;
19747;SDS011;10032;51.386;12.516;2023-04-01T02:17:16;2.27;;;1.50;;
19747;SDS011;10032;51.386;12.516;2023-04-01T02:19:50;1.30;;;1.13;;
19747;SDS011;10032;51.386;12.516;2023-04-01T02:22:21;1.53;;;1.43;;
19747;SDS011;10032;51.386;12.516;2023-04-01T02:24:50;1.40;;;1.10;;
19747;SDS011;10032;51.386;12.516;2023-04-01T02:27:19;2.50;;;1.30;;
19747;SDS011;10032;51.386;12.516;2023-04-01T02:29:45;1.00;;;1.00;;
19747;SDS011;10032;51.386;12.516;2023-04-01T02:32:10;1.83;;;1.17;;
19747;SDS011;10032;51.386;12.516;2023-04-01T02:34:38;1.07;;;1.03;;
19747;SDS011;10032;51.386;12.516;2023-04-01T02:37:04;4.40;;;1.43;;
19747;SDS011;10032;51.386;12.516;2023-04-01T02:39:29;1.33;;;0.90;;
19747;SDS011;10032;51.386;12.516;2023-04-01T02:41:55;1.77;;;1.10;;
19747;SDS011;10032;51.386;12.516;2023-04-01T02:44:20;1.03;;;1.00;;
19747;SDS011;10032;51.386;12.516;2023-04-01T02:46:46;2.20;;;1.10;;
19747;SDS011;10032;51.386;12.516;2023-04-01T02:49:11;1.07;;;1.07;;
19747;SDS011;10032;51.386;12.516;2023-04-01T02:51:37;2.00;;;0.90;;
19747;SDS011;10032;51.386;12.516;2023-04-01T02:54:02;1.23;;;1.10;;
19747;SDS011;10032;51.386;12.516;2023-04-01T02:56:27;2.43;;;1.37;;
19747;SDS011;10032;51.386;12.516;2023-04-01T02:58:53;1.70;;;1.03;;
19747;SDS011;10032;51.386;12.516;2023-04-01T03:01:19;1.73;;;1.20;;
19747;SDS011;10032;51.386;12.516;2023-04-01T03:03:45;2.43;;;1.10;;
19747;SDS011;10032;51.386;12.516;2023-04-01T03:06:12;1.43;;;1.00;;
19747;SDS011;10032;51.386;12.516;2023-04-01T03:08:40;1.40;;;1.03;;
19747;SDS011;10032;51.386;12.516;2023-04-01T03:11:05;2.00;;;0.87;;
19747;SDS011;10032;51.386;12.516;2023-04-01T03:13:31;2.27;;;1.50;;
19747;SDS011;10032;51.386;12.516;2023-04-01T03:15:57;1.10;;;1.00;;
19747;SDS011;10032;51.386;12.516;2023-04-01T03:18:22;2.67;;;1.23;;
19747;SDS011;10032;51.386;12.516;2023-04-01T03:20:48;3.00;;;0.97;;
19747;SDS011;10032;51.386;12.516;2023-04-01T03:23:13;3.13;;;1.10;;
19747;SDS011;10032;51.386;12.516;2023-04-01T03:25:39;2.70;;;1.37;;
19747;SDS011;10032;51.386;12.516;2023-04-01T03:28:05;1.70;;;1.60;;
19747;SDS011;10032;51.386;12.516;2023-04-01T03:30:30;3.73;;;1.50;;
19747;SDS011;10032;51.386;12.516;2023-04-01T03:32:56;3.00;;;1.20;;
19747;SDS011;10032;51.386;12.516;2023-04-01T03:35:22;1.60;;;1.17;;
19747;SDS011;10032;51.386;12.516;2023-04-01T03:37:50;2.00;;;0.90;;
19747;SDS011;10032;51.386;12.516;2023-04-01T03:40:16;5.53;;;1.50;;
19747;SDS011;10032;51.386;12.516;2023-04-01T03:42:41;2.20;;;1.40;;
19747;SDS011;10032;51.386;12.516;2023-04-01T03:45:07;1.33;;;1.00;;
19747;SDS011;10032;51.386;12.516;2023-04-01T03:47:32;3.60;;;1.47;;
19747;SDS011;10032;51.386;12.516;2023-04-01T03:49:58;3.37;;;1.17;;
19747;SDS011;10032;51.386;12.516;2023-04-01T03:52:23;1.87;;;1.00;;
19747;SDS011;10032;51.386;12.516;2023-04-01T03:54:49;3.67;;;1.50;;
19747;SDS011;10032;51.386;12.516;2023-04-01T03:57:14;1.90;;;1.00;;
19747;SDS011;10032;51.386;12.516;2023-04-01T03:59:39;2.57;;;1.30;;
19747;SDS011;10032;51.386;12.516;2023-04-01T04:02:05;2.60;;;1.23;;
19747;SDS011;10032;51.386;12.516;2023-04-01T04:04:30;2.87;;;1.40;;
19747;SDS011;10032;51.386;12.516;2023-04-01T04:06:57;3.03;;;1.30;;
19747;SDS011;10032;51.386;12.516;2023-04-01T04:09:23;2.83;;;1.23;;
19747;SDS011;10032;51.386;12.516;2023-04-01T04:11:48;3.13;;;1.27;;
19747;SDS011;10032;51.386;12.516;2023-04-01T04:14:14;2.57;;;1.20;;
19747;SDS011;10032;51.386;12.516;2023-04-01T04:16:40;1.77;;;1.10;;
19747;SDS011;10032;51.386;12.516;2023-04-01T04:19:06;3.53;;;1.27;;
19747;SDS011;10032;51.386;12.516;2023-04-01T04:21:31;3.77;;;1.57;;
19747;SDS011;10032;51.386;12.516;2023-04-01T04:23:58;1.20;;;1.10;;
19747;SDS011;10032;51.386;12.516;2023-04-01T04:26:24;2.97;;;1.40;;
19747;SDS011;10032;51.386;12.516;2023-04-01T04:28:50;2.80;;;1.43;;
19747;SDS011;10032;51.386;12.516;2023-04-01T04:31:19;2.83;;;1.57;;
19747;SDS011;10032;51.386;12.516;2023-04-01T04:33:46;1.77;;;0.93;;
19747;SDS011;10032;51.386;12.516;2023-04-01T04:36:11;2.23;;;1.03;;
19747;SDS011;10032;51.386;12.516;2023-04-01T04:38:38;1.30;;;1.07;;
19747;SDS011;10032;51.386;12.516;2023-04-01T04:41:07;1.77;;;1.40;;
19747;SDS011;10032;51.386;12.516;2023-04-01T04:43:37;2.00;;;1.20;;
19747;SDS011;10032;51.386;12.516;2023-04-01T04:46:04;2.00;;;1.20;;
19747;SDS011;10032;51.386;12.516;2023-04-01T04:48:33;3.50;;;1.77;;
19747;SDS011;10032;51.386;12.516;2023-04-01T04:50:59;1.63;;;1.00;;
19747;SDS011;10032;51.386;12.516;2023-04-01T04:53:24;2.30;;;1.70;;
19747;SDS011;10032;51.386;12.516;2023-04-01T04:55:51;1.90;;;1.30;;
19747;SDS011;10032;51.386;12.516;2023-04-01T04:58:16;3.10;;;1.17;;
19747;SDS011;10032;51.386;12.516;2023-04-01T05:00:42;3.13;;;1.37;;
19747;SDS011;10032;51.386;12.516;2023-04-01T05:03:08;1.20;;;1.10;;
19747;SDS011;10032;51.386;12.516;2023-04-01T05:05:34;2.77;;;1.33;;
19747;SDS011;10032;51.386;12.516;2023-04-01T05:08:00;1.80;;;1.33;;
19747;SDS011;10032;51.386;12.516;2023-04-01T05:10:26;1.27;;;1.10;;
19747;SDS011;10032;51.386;12.516;2023-04-01T05:12:51;4.97;;;1.60;;
19747;SDS011;10032;51.386;12.516;2023-04-01T05:15:17;2.83;;;1.33;;
19747;SDS011;10032;51.386;12.516;2023-04-01T05:17:42;1.77;;;1.37;;
19747;SDS011;10032;51.386;12.516;2023-04-01T05:20:08;3.40;;;1.97;;
19747;SDS011;10032;51.386;12.516;2023-04-01T05:22:33;1.47;;;1.37;;
19747;SDS011;10032;51.386;12.516;2023-04-01T05:24:59;3.20;;;1.57;;
19747;SDS011;10032;51.386;12.516;2023-04-01T05:27:24;2.30;;;1.50;;
19747;SDS011;10032;51.386;12.516;2023-04-01T05:29:50;4.57;;;1.50;;
19747;SDS011;10032;51.386;12.516;2023-04-01T05:32:15;2.97;;;1.40;;
19747;SDS011;10032;51.386;12.516;2023-04-01T05:34:41;2.97;;;1.77;;
19747;SDS011;10032;51.386;12.516;2023-04-01T05:37:06;2.37;;;1.20;;
19747;SDS011;10032;51.386;12.516;2023-04-01T05:39:35;1.77;;;1.33;;
19747;SDS011;10032;51.386;12.516;2023-04-01T05:42:07;2.40;;;1.77;;
19747;SDS011;10032;51.386;12.516;2023-04-01T05:44:33;3.20;;;1.40;;
19747;SDS011;10032;51.386;12.516;2023-04-01T05:46:58;3.67;;;1.50;;
19747;SDS011;10032;51.386;12.516;2023-04-01T05:49:24;2.60;;;1.30;;
19747;SDS011;10032;51.386;12.516;2023-04-01T05:51:50;2.13;;;1.43;;
19747;SDS011;10032;51.386;12.516;2023-04-01T05:54:16;2.03;;;1.47;;
19747;SDS011;10032;51.386;12.516;2023-04-01T05:56:42;1.97;;;1.70;;
19747;SDS011;10032;51.386;12.516;2023-04-01T05:59:09;2.00;;;1.20;;
19747;SDS011;10032;51.386;12.516;2023-04-01T06:01:35;1.83;;;1.57;;
19747;SDS011;10032;51.386;12.516;2023-04-01T06:04:01;2.27;;;1.50;;
19747;SDS011;10032;51.386;12.516;2023-04-01T06:06:27;1.63;;;1.50;;
19747;SDS011;10032;51.386;12.516;2023-04-01T06:08:56;1.53;;;1.43;;
19747;SDS011;10032;51.386;12.516;2023-04-01T06:24:41;3.20;;;1.70;;
19747;SDS011;10032;51.386;12.516;2023-04-01T06:27:25;2.33;;;1.87;;
19747;SDS011;10032;51.386;12.516;2023-04-01T06:38:11;3.20;;;1.80;;
19747;SDS011;10032;51.386;12.516;2023-04-01T06:51:59;5.40;;;2.27;;
19747;SDS011;10032;51.386;12.516;2023-04-01T06:55:48;2.07;;;1.83;;
19747;SDS011;10032;51.386;12.516;2023-04-01T06:58:09;2.83;;;1.43;;
19747;SDS011;10032;51.386;12.516;2023-04-01T07:00:44;2.70;;;1.20;;
19747;SDS011;10032;51.386;12.516;2023-04-01T07:05:58;3.87;;;1.60;;
19747;SDS011;10032;51.386;12.516;2023-04-01T07:08:31;1.10;;;1.00;;
19747;SDS011;10032;51.386;12.516;2023-04-01T07:11:03;2.83;;;1.23;;
19747;SDS011;10032;51.386;12.516;2023-04-01T07:16:27;2.17;;;1.10;;
19747;SDS011;10032;51.386;12.516;2023-04-01T07:21:49;2.27;;;0.93;;
19747;SDS011;10032;51.386;12.516;2023-04-01T07:26:58;5.50;;;1.43;;
19747;SDS011;10032;51.386;12.516;2023-04-01T07:29:24;4.93;;;2.40;;
19747;SDS011;10032;51.386;12.516;2023-04-01T07:32:13;1.53;;;1.13;;
19747;SDS011;10032;51.386;12.516;2023-04-01T07:51:17;0.90;;;0.73;;
19747;SDS011;10032;51.386;12.516;2023-04-01T08:05:00;1.00;;;1.00;;
19747;SDS011;10032;51.386;12.516;2023-04-01T08:07:44;1.43;;;1.10;;
19747;SDS011;10032;51.386;12.516;2023-04-01T08:12:48;0.90;;;0.80;;
19747;SDS011;10032;51.386;12.516;2023-04-01T08:15:25;0.83;;;0.83;;
19747;SDS011;10032;51.386;12.516;2023-04-01T08:20:30;1.83;;;1.60;;
19747;SDS011;10032;51.386;12.516;2023-04-01T08:23:05;3.43;;;1.70;;
19747;SDS011;10032;51.386;12.516;2023-04-01T08:25:37;2.53;;;1.43;;
19747;SDS011;10032;51.386;12.516;2023-04-01T08:31:00;2.83;;;1.77;;
19747;SDS011;10032;51.386;12.516;2023-04-01T08:33:28;6.13;;;5.27;;
19747;SDS011;10032;51.386;12.516;2023-04-01T08:36:09;1.30;;;1.20;;
19747;SDS011;10032;51.386;12.516;2023-04-01T08:38:42;1.90;;;1.63;;
19747;SDS011;10032;51.386;12.516;2023-04-01T08:46:46;1.13;;;0.80;;
19747;SDS011;10032;51.386;12.516;2023-04-01T08:49:44;1.27;;;0.90;;
19747;SDS011;10032;51.386;12.516;2023-04-01T08:55:40;1.00;;;0.70;;
19747;SDS011;10032;51.386;12.516;2023-04-01T09:01:11;1.17;;;0.90;;
19747;SDS011;10032;51.386;12.516;2023-04-01T09:12:59;1.67;;;1.20;;
19747;SDS011;10032;51.386;12.516;2023-04-01T09:21:41;0.93;;;0.93;;
19747;SDS011;10032;51.386;12.516;2023-04-01T09:24:33;3.57;;;1.37;;
19747;SDS011;10032;51.386;12.516;2023-04-01T09:43:22;1.43;;;0.90;;
19747;SDS011;10032;51.386;12.516;2023-04-01T09:46:10;0.73;;;0.57;;
19747;SDS011;10032;51.386;12.516;2023-04-01T09:49:02;0.70;;;0.67;;
19747;SDS011;10032;51.386;12.516;2023-04-01T09:57:54;4.57;;;1.60;;
19747;SDS011;10032;51.386;12.516;2023-04-01T10:00:53;2.37;;;1.90;;
19747;SDS011;10032;51.386;12.516;2023-04-01T10:28:07;2.20;;;0.80;;
19747;SDS011;10032;51.386;12.516;2023-04-01T10:39:17;0.90;;;0.70;;
19747;SDS011;10032;51.386;12.516;2023-04-01T11:34:32;1.02;;;1.00;;
19747;SDS011;10032;51.386;12.516;2023-04-01T11:42:38;1.38;;;1.20;;
19747;SDS011;10032;51.386;12.516;2023-04-01T11:45:17;1.38;;;1.27;;
19747;SDS011;10032;51.386;12.516;2023-04-01T11:55:55;1.40;;;1.30;;
19747;SDS011;10032;51.386;12.516;2023-04-01T11:58:49;6.15;;;2.35;;
19747;SDS011;10032;51.386;12.516;2023-04-01T12:01:53;1.63;;;1.53;;
19747;SDS011;10032;51.386;12.516;2023-04-01T12:34:53;4.75;;;3.00;;
19747;SDS011;10032;51.386;12.516;2023-04-01T12:46:16;1.63;;;1.50;;
19747;SDS011;10032;51.386;12.516;2023-04-01T13:02:53;1.30;;;1.20;;
19747;SDS011;10032;51.386;12.516;2023-04-01T13:05:15;1.07;;;1.00;;
19747;SDS011;10032;51.386;12.516;2023-04-01T13:08:08;2.20;;;2.00;;
19747;SDS011;10032;51.386;12.516;2023-04-01T13:16:16;2.00;;;1.77;;
19747;SDS011;10032;51.386;12.516;2023-04-01T13:19:06;4.20;;;3.37;;
19747;SDS011;10032;51.386;12.516;2023-04-01T13:24:38;2.40;;;2.20;;
19747;SDS011;10032;51.386;12.516;2023-04-01T13:29:54;1.20;;;1.10;;
19747;SDS011;10032;51.386;12.516;2023-04-01T13:32:29;1.67;;;0.90;;
19747;SDS011;10032;51.386;12.516;2023-04-01T13:43:22;2.03;;;1.83;;
19747;SDS011;10032;51.386;12.516;2023-04-01T13:57:29;1.00;;;0.85;;
19747;SDS011;10032;51.386;12.516;2023-04-01T14:09:00;4.43;;;3.07;;
19747;SDS011;10032;51.386;12.516;2023-04-01T14:19:50;0.93;;;0.90;;
19747;SDS011;10032;51.386;12.516;2023-04-01T14:31:02;2.07;;;1.93;;
19747;SDS011;10032;51.386;12.516;2023-04-01T14:39:24;4.50;;;2.73;;
19747;SDS011;10032;51.386;12.516;2023-04-01T14:42:13;4.87;;;3.20;;
19747;SDS011;10032;51.386;12.516;2023-04-01T14:47:58;1.50;;;1.40;;
19747;SDS011;10032;51.386;12.516;2023-04-01T14:50:43;1.40;;;1.30;;
19747;SDS011;10032;51.386;12.516;2023-04-01T14:58:16;2.35;;;2.03;;
19747;SDS011;10032;51.386;12.516;2023-04-01T15:06:00;8.50;;;4.23;;
19747;SDS011;10032;51.386;12.516;2023-04-01T15:08:34;3.35;;;2.90;;
19747;SDS011;10032;51.386;12.516;2023-04-01T15:19:26;1.17;;;1.07;;
19747;SDS011;10032;51.386;12.516;2023-04-01T15:27:22;2.47;;;1.50;;
19747;SDS011;10032;51.386;12.516;2023-04-01T15:32:37;2.03;;;1.27;;
19747;SDS011;10032;51.386;12.516;2023-04-01T15:38:14;4.37;;;2.50;;
19747;SDS011;10032;51.386;12.516;2023-04-01T15:44:32;4.87;;;3.07;;
19747;SDS011;10032;51.386;12.516;2023-04-01T15:47:03;2.23;;;1.90;;
19747;SDS011;10032;51.386;12.516;2023-04-01T15:50:05;3.37;;;1.70;;
19747;SDS011;10032;51.386;12.516;2023-04-01T16:22:44;1.57;;;1.30;;
19747;SDS011;10032;51.386;12.516;2023-04-01T16:25:19;3.97;;;2.87;;
19747;SDS011;10032;51.386;12.516;2023-04-01T16:28:07;3.30;;;3.00;;
19747;SDS011;10032;51.386;12.516;2023-04-01T16:30:50;3.87;;;3.57;;
19747;SDS011;10032;51.386;12.516;2023-04-01T16:36:45;4.63;;;2.30;;
19747;SDS011;10032;51.386;12.516;2023-04-01T16:41:49;1.77;;;1.67;;
19747;SDS011;10032;51.386;12.516;2023-04-01T16:44:23;2.03;;;1.43;;
19747;SDS011;10032;51.386;12.516;2023-04-01T16:46:51;1.30;;;1.20;;
19747;SDS011;10032;51.386;12.516;2023-04-01T16:52:29;4.03;;;2.80;;
19747;SDS011;10032;51.386;12.516;2023-04-01T16:55:01;5.20;;;3.50;;
19747;SDS011;10032;51.386;12.516;2023-04-01T16:57:43;7.30;;;4.37;;
19747;SDS011;10032;51.386;12.516;2023-04-01T17:03:04;4.37;;;3.27;;
19747;SDS011;10032;51.386;12.516;2023-04-01T17:16:57;7.43;;;6.10;;
19747;SDS011;10032;51.386;12.516;2023-04-01T17:24:55;1.10;;;1.10;;
19747;SDS011;10032;51.386;12.516;2023-04-01T18:03:36;0.90;;;0.80;;
19747;SDS011;10032;51.386;12.516;2023-04-01T18:06:17;0.90;;;0.90;;
19747;SDS011;10032;51.386;12.516;2023-04-01T18:08:59;1.37;;;1.27;;
19747;SDS011;10032;51.386;12.516;2023-04-01T18:19:46;1.23;;;1.13;;
19747;SDS011;10032;51.386;12.516;2023-04-01T18:28:14;1.37;;;1.27;;
19747;SDS011;10032;51.386;12.516;2023-04-01T18:30:56;1.43;;;1.33;;
19747;SDS011;10032;51.386;12.516;2023-04-01T18:33:41;1.47;;;1.37;;
19747;SDS011;10032;51.386;12.516;2023-04-01T18:36:33;1.67;;;1.30;;
19747;SDS011;10032;51.386;12.516;2023-04-01T18:39:16;1.73;;;1.17;;
19747;SDS011;10032;51.386;12.516;2023-04-01T18:42:10;1.20;;;0.90;;
19747;SDS011;10032;51.386;12.516;2023-04-01T18:44:46;0.87;;;0.87;;
19747;SDS011;10032;51.386;12.516;2023-04-01T18:47:24;1.17;;;0.97;;
19747;SDS011;10032;51.386;12.516;2023-04-01T18:50:06;1.20;;;1.10;;
19747;SDS011;10032;51.386;12.516;2023-04-01T18:52:44;0.73;;;0.73;;
19747;SDS011;10032;51.386;12.516;2023-04-01T18:57:51;2.83;;;2.30;;
19747;SDS011;10032;51.386;12.516;2023-04-01T19:05:51;3.13;;;2.80;;
19747;SDS011;10032;51.386;12.516;2023-04-01T19:13:48;2.73;;;2.43;;
19747;SDS011;10032;51.386;12.516;2023-04-01T19:21:58;2.40;;;2.20;;
19747;SDS011;10032;51.386;12.516;2023-04-01T19:27:52;2.53;;;2.13;;
19747;SDS011;10032;51.386;12.516;2023-04-01T19:30:36;2.17;;;1.97;;
19747;SDS011;10032;51.386;12.516;2023-04-01T19:39:45;2.70;;;2.30;;
19747;SDS011;10032;51.386;12.516;2023-04-01T19:49:48;3.20;;;2.33;;
19747;SDS011;10032;51.386;12.516;2023-04-01T19:54:50;4.10;;;3.17;;
19747;SDS011;10032;51.386;12.516;2023-04-01T19:57:42;4.17;;;3.23;;
19747;SDS011;10032;51.386;12.516;2023-04-01T20:00:27;4.07;;;2.97;;
19747;SDS011;10032;51.386;12.516;2023-04-01T20:05:48;3.70;;;2.30;;
19747;SDS011;10032;51.386;12.516;2023-04-01T20:08:36;3.07;;;2.40;;
19747;SDS011;10032;51.386;12.516;2023-04-01T20:13:48;2.60;;;2.33;;
19747;SDS011;10032;51.386;12.516;2023-04-01T20:16:18;5.83;;;2.70;;
19747;SDS011;10032;51.386;12.516;2023-04-01T20:18:56;3.10;;;2.80;;
19747;SDS011;10032;51.386;12.516;2023-04-01T20:21:45;3.57;;;2.80;;
19747;SDS011;10032;51.386;12.516;2023-04-01T20:26:50;3.77;;;2.90;;
19747;SDS011;10032;51.386;12.516;2023-04-01T20:37:37;2.77;;;2.40;;
19747;SDS011;10032;51.386;12.516;2023-04-01T20:45:46;3.73;;;2.70;;
19747;SDS011;10032;51.386;12.516;2023-04-01T20:51:26;4.67;;;3.20;;
19747;SDS011;10032;51.386;12.516;2023-04-01T20:56:46;3.70;;;2.60;;
19747;SDS011;10032;51.386;12.516;2023-04-01T21:02:04;4.00;;;3.00;;
19747;SDS011;10032;51.386;12.516;2023-04-01T21:07:41;3.80;;;3.03;;
19747;SDS011;10032;51.386;12.516;2023-04-01T21:10:20;4.43;;;3.27;;
19747;SDS011;10032;51.386;12.516;2023-04-01T21:13:00;3.70;;;2.93;;
19747;SDS011;10032;51.386;12.516;2023-04-01T21:15:30;3.67;;;3.10;;
19747;SDS011;10032;51.386;12.516;2023-04-01T21:21:14;3.67;;;2.80;;
19747;SDS011;10032;51.386;12.516;2023-04-01T21:32:31;2.93;;;2.50;;
19747;SDS011;10032;51.386;12.516;2023-04-01T21:40:50;3.97;;;3.17;;
19747;SDS011;10032;51.386;12.516;2023-04-01T21:43:25;3.77;;;3.13;;
19747;SDS011;10032;51.386;12.516;2023-04-01T22:10:51;3.43;;;2.80;;
19747;SDS011;10032;51.386;12.516;2023-04-01T22:16:28;3.47;;;2.97;;
19747;SDS011;10032;51.386;12.516;2023-04-01T22:19:19;3.40;;;2.90;;
19747;SDS011;10032;51.386;12.516;2023-04-01T22:22:04;3.60;;;3.10;;
19747;SDS011;10032;51.386;12.516;2023-04-01T22:24:37;4.57;;;3.50;;
19747;SDS011;10032;51.386;12.516;2023-04-01T22:41:14;4.03;;;3.10;;
19747;SDS011;10032;51.386;12.516;2023-04-01T22:44:00;3.57;;;3.23;;
19747;SDS011;10032;51.386;12.516;2023-04-01T22:46:36;3.40;;;3.10;;
19747;SDS011;10032;51.386;12.516;2023-04-01T22:57:10;4.07;;;2.70;;
19747;SDS011;10032;51.386;12.516;2023-04-01T23:02:33;5.83;;;2.90;;
19747;SDS011;10032;51.386;12.516;2023-04-01T23:05:04;3.00;;;2.67;;
19747;SDS011;10032;51.386;12.516;2023-04-01T23:10:02;2.93;;;2.73;;
19747;SDS011;10032;51.386;12.516;2023-04-01T23:12:37;3.30;;;2.57;;
19747;SDS011;10032;51.386;12.516;2023-04-01T23:15:08;3.07;;;2.37;;
19747;SDS011;10032;51.386;12.516;2023-04-01T23:17:43;3.07;;;2.77;;
19747;SDS011;10032;51.386;12.516;2023-04-01T23:28:51;2.63;;;2.33;;
19747;SDS011;10032;51.386;12.516;2023-04-01T23:33:59;3.33;;;2.80;;
19747;SDS011;10032;51.386;12.516;2023-04-01T23:36:30;3.67;;;3.00;;
19747;SDS011;10032;51.386;12.516;2023-04-01T23:39:04;3.00;;;2.40;;
19747;SDS011;10032;51.386;12.516;2023-04-01T23:41:46;4.53;;;2.70;;
19747;SDS011;10032;51.386;12.516;2023-04-01T23:44:12;2.90;;;2.50;;
19747;SDS011;10032;51.386;12.516;2023-04-01T23:46:39;3.07;;;2.50;;
19747;SDS011;10032;51.386;12.516;2023-04-01T23:49:17;2.47;;;2.27;;
19747;SDS011;10032;51.386;12.516;2023-04-01T23:51:52;2.70;;;2.50;;
19747;SDS011;10032;51.386;12.516;2023-04-01T23:56:50;3.87;;;2.80;;
19747;SDS011;10032;51.386;12.516;2023-04-01T23:59:18;3.33;;;2.77;;
